createdAt,value
2023-04-21T00:00:57.565Z,99.90
2023-04-21T00:03:24.873Z,99.90
2023-04-21T00:05:52.352Z,99.90
2023-04-21T00:08:20.909Z,99.90
2023-04-21T00:10:47.748Z,99.90
2023-04-21T00:13:14.655Z,99.90
2023-04-21T00:15:41.593Z,99.90
2023-04-21T00:18:08.668Z,99.90
2023-04-21T00:20:36.262Z,99.90
2023-04-21T00:23:03.127Z,99.90
2023-04-21T00:25:31.465Z,99.90
2023-04-21T00:27:58.706Z,99.90
2023-04-21T00:30:25.698Z,99.90
2023-04-21T00:32:52.955Z,99.90
2023-04-21T00:35:19.908Z,99.90
2023-04-21T00:37:46.819Z,99.90
2023-04-21T00:40:13.883Z,99.90
2023-04-21T00:42:42.322Z,99.90
2023-04-21T00:45:09.576Z,99.90
2023-04-21T00:47:36.491Z,99.90
2023-04-21T00:50:04.277Z,99.90
2023-04-21T00:52:32.876Z,99.90
2023-04-21T00:55:00.140Z,99.90
2023-04-21T00:57:27.994Z,99.90
2023-04-21T00:59:56.167Z,99.90
2023-04-21T01:02:23.563Z,99.90
2023-04-21T01:04:50.618Z,99.90
2023-04-21T01:07:17.423Z,99.90
2023-04-21T01:09:44.202Z,99.90
2023-04-21T01:12:12.339Z,99.90
2023-04-21T01:14:40.388Z,99.90
2023-04-21T01:17:08.894Z,99.90
2023-04-21T01:19:38.418Z,99.90
2023-04-21T01:22:06.775Z,99.90
2023-04-21T01:24:37.872Z,99.90
2023-04-21T01:27:09.267Z,99.90
2023-04-21T01:29:36.081Z,99.90
2023-04-21T01:32:08.144Z,99.90
2023-04-21T01:34:35.377Z,99.90
2023-04-21T01:37:02.350Z,99.90
2023-04-21T01:39:30.519Z,99.90
2023-04-21T01:41:57.413Z,99.90
2023-04-21T01:44:25.194Z,99.90
2023-04-21T01:46:52.272Z,99.90
2023-04-21T01:49:19.276Z,99.90
2023-04-21T01:51:46.224Z,99.90
2023-04-21T01:54:13.064Z,99.90
2023-04-21T01:56:41.447Z,99.90
2023-04-21T01:59:08.261Z,99.90
2023-04-21T02:01:35.194Z,99.90
2023-04-21T02:04:02.975Z,99.90
2023-04-21T02:06:29.993Z,99.90
2023-04-21T02:08:56.818Z,99.90
2023-04-21T02:11:23.706Z,99.90
2023-04-21T02:13:52.154Z,99.90
2023-04-21T02:16:19.059Z,99.90
2023-04-21T02:18:45.974Z,99.90
2023-04-21T02:21:12.850Z,99.90
2023-04-21T02:23:39.732Z,99.90
2023-04-21T02:26:06.632Z,99.90
2023-04-21T02:28:33.550Z,99.90
2023-04-21T02:31:01.970Z,99.90
2023-04-21T02:33:29.680Z,99.90
2023-04-21T02:35:56.625Z,99.90
2023-04-21T02:38:23.496Z,99.90
2023-04-21T02:40:50.498Z,99.90
2023-04-21T02:43:17.665Z,99.90
2023-04-21T02:45:44.839Z,99.90
2023-04-21T02:48:13.402Z,99.90
2023-04-21T02:50:40.378Z,99.90
2023-04-21T02:53:07.577Z,99.90
2023-04-21T02:55:34.396Z,99.90
2023-04-21T02:58:01.387Z,99.90
2023-04-21T03:00:28.247Z,99.90
2023-04-21T03:02:55.266Z,99.90
2023-04-21T03:05:23.802Z,99.90
2023-04-21T03:07:50.774Z,99.90
2023-04-21T03:10:17.727Z,99.90
2023-04-21T03:12:44.855Z,99.90
2023-04-21T03:15:11.893Z,99.90
2023-04-21T03:17:38.903Z,99.90
2023-04-21T03:20:06.980Z,99.90
2023-04-21T03:22:35.476Z,99.90
2023-04-21T03:25:02.485Z,99.90
2023-04-21T03:27:29.277Z,99.90
2023-04-21T03:29:56.097Z,99.90
2023-04-21T03:32:23.314Z,99.90
2023-04-21T03:34:50.348Z,99.90
2023-04-21T03:37:17.234Z,99.90
2023-04-21T03:39:45.391Z,99.90
2023-04-21T03:42:12.522Z,99.90
2023-04-21T03:44:39.391Z,99.90
2023-04-21T03:47:06.183Z,99.90
2023-04-21T03:49:34.335Z,99.90
2023-04-21T03:52:01.089Z,99.90
2023-04-21T03:54:27.924Z,99.90
2023-04-21T03:56:56.200Z,99.90
2023-04-21T03:59:23.087Z,99.90
2023-04-21T04:01:50.007Z,99.90
2023-04-21T04:04:17.004Z,99.90
2023-04-21T04:06:44.169Z,99.90
2023-04-21T04:09:10.958Z,99.90
2023-04-21T04:11:37.819Z,99.90
2023-04-21T04:14:06.051Z,99.90
2023-04-21T04:16:34.218Z,99.90
2023-04-21T04:19:01.032Z,99.90
2023-04-21T04:21:27.905Z,99.90
2023-04-21T04:23:54.856Z,99.90
2023-04-21T04:26:21.652Z,99.90
2023-04-21T04:28:48.598Z,99.90
2023-04-21T04:31:16.904Z,99.90
2023-04-21T04:33:43.848Z,99.90
2023-04-21T04:36:10.997Z,99.90
2023-04-21T04:38:38.015Z,99.90
2023-04-21T04:41:05.309Z,99.90
2023-04-21T04:43:32.333Z,99.90
2023-04-21T04:45:59.237Z,99.90
2023-04-21T04:48:27.405Z,99.90
2023-04-21T04:50:54.442Z,99.90
2023-04-21T04:53:21.743Z,99.90
2023-04-21T04:55:48.612Z,99.90
2023-04-21T04:58:16.480Z,99.90
2023-04-21T05:00:43.324Z,99.90
2023-04-21T05:03:10.264Z,99.90
2023-04-21T05:05:38.558Z,99.90
2023-04-21T05:08:05.651Z,99.90
2023-04-21T05:10:32.887Z,99.90
2023-04-21T05:12:59.969Z,99.90
2023-04-21T05:15:26.811Z,99.90
2023-04-21T05:17:53.598Z,99.90
2023-04-21T05:20:20.452Z,99.90
2023-04-21T05:22:48.623Z,99.90
2023-04-21T05:25:15.462Z,99.90
2023-04-21T05:27:42.332Z,99.90
2023-04-21T05:30:09.970Z,99.90
2023-04-21T05:32:36.888Z,99.90
2023-04-21T05:35:04.015Z,99.90
2023-04-21T05:37:30.792Z,99.90
2023-04-21T05:39:59.120Z,99.90
2023-04-21T05:42:25.884Z,99.90
2023-04-21T05:44:53.146Z,99.90
2023-04-21T05:47:19.973Z,99.90
2023-04-21T05:49:46.803Z,99.90
2023-04-21T05:52:13.555Z,99.90
2023-04-21T05:54:40.358Z,99.90
2023-04-21T05:57:08.654Z,99.90
2023-04-21T05:59:35.435Z,99.90
2023-04-21T06:02:02.478Z,99.90
2023-04-21T06:04:29.808Z,99.90
2023-04-21T06:06:56.812Z,99.90
2023-04-21T06:09:23.581Z,99.90
2023-04-21T06:11:50.388Z,99.90
2023-04-21T06:14:18.787Z,99.90
2023-04-21T06:16:46.030Z,99.90
2023-04-21T06:19:12.876Z,99.90
2023-04-21T06:21:39.651Z,99.90
2023-04-21T06:24:07.101Z,99.90
2023-04-21T06:26:33.934Z,99.90
2023-04-21T06:29:00.694Z,99.90
2023-04-21T06:31:28.800Z,99.90
2023-04-21T06:33:55.639Z,99.90
2023-04-21T06:36:22.395Z,99.90
2023-04-21T06:38:49.387Z,99.90
2023-04-21T06:41:16.142Z,99.60
2023-04-21T06:43:42.923Z,98.20
2023-04-21T06:46:09.711Z,97.90
2023-04-21T06:48:37.835Z,97.00
2023-04-21T06:51:04.944Z,96.90
2023-04-21T06:53:32.281Z,95.80
2023-04-21T06:55:59.083Z,94.90
2023-04-21T06:58:26.206Z,93.30
2023-04-21T07:00:53.126Z,94.00
2023-04-21T07:03:20.181Z,93.40
2023-04-21T07:05:48.489Z,93.70
2023-04-21T07:08:15.238Z,93.50
2023-04-21T07:10:42.017Z,92.40
2023-04-21T07:13:10.106Z,92.10
2023-04-21T07:15:36.983Z,91.90
2023-04-21T07:18:03.924Z,90.90
2023-04-21T07:20:30.736Z,90.50
2023-04-21T07:22:58.913Z,91.00
2023-04-21T07:25:26.082Z,91.30
2023-04-21T07:27:52.859Z,91.30
2023-04-21T07:30:19.691Z,90.70
2023-04-21T07:32:46.600Z,90.60
2023-04-21T07:35:13.688Z,90.10
2023-04-21T07:37:40.461Z,89.90
2023-04-21T07:40:09.918Z,89.30
2023-04-21T07:42:36.706Z,89.60
2023-04-21T07:45:03.846Z,89.00
2023-04-21T07:47:30.788Z,87.90
2023-04-21T07:49:57.695Z,88.30
2023-04-21T07:52:24.491Z,85.30
2023-04-21T07:54:51.371Z,85.50
2023-04-21T07:57:19.432Z,85.30
2023-04-21T07:59:46.247Z,84.70
2023-04-21T08:02:13.102Z,84.50
2023-04-21T08:04:39.957Z,83.40
2023-04-21T08:07:06.959Z,81.50
2023-04-21T08:09:33.867Z,80.20
2023-04-21T08:12:00.661Z,79.50
2023-04-21T08:14:28.851Z,77.50
2023-04-21T08:16:57.199Z,77.90
2023-04-21T08:19:24.341Z,78.50
2023-04-21T08:21:51.163Z,78.30
2023-04-21T08:24:18.286Z,76.90
2023-04-21T08:26:45.787Z,76.80
2023-04-21T08:29:12.591Z,75.40
2023-04-21T08:31:40.826Z,74.60
2023-04-21T08:34:07.930Z,74.10
2023-04-21T08:36:34.933Z,73.90
2023-04-21T08:39:01.858Z,72.60
2023-04-21T08:41:28.708Z,73.20
2023-04-21T08:43:55.509Z,73.10
2023-04-21T08:46:23.323Z,72.10
2023-04-21T08:48:52.960Z,73.40
2023-04-21T08:51:22.686Z,72.50
2023-04-21T08:53:49.484Z,71.20
2023-04-21T08:56:16.260Z,70.40
2023-04-21T08:58:43.000Z,71.10
2023-04-21T09:01:09.878Z,71.50
2023-04-21T09:03:36.819Z,71.80
2023-04-21T09:06:07.806Z,71.50
2023-04-21T09:08:36.754Z,70.40
2023-04-21T09:11:03.692Z,70.70
2023-04-21T09:13:31.835Z,71.10
2023-04-21T09:15:59.267Z,71.00
2023-04-21T09:18:27.860Z,71.00
2023-04-21T09:21:07.848Z,71.40
2023-04-21T09:23:41.269Z,70.80
2023-04-21T09:26:09.578Z,70.60
2023-04-21T09:28:36.365Z,70.20
2023-04-21T09:31:03.238Z,70.00
2023-04-21T09:36:01.829Z,69.70
2023-04-21T09:38:30.149Z,69.40
2023-04-21T09:40:57.566Z,69.70
2023-04-21T09:43:24.545Z,69.60
2023-04-21T09:45:51.653Z,69.70
2023-04-21T09:48:22.397Z,69.60
2023-04-21T09:51:22.729Z,69.50
2023-04-21T09:53:40.224Z,69.70
2023-04-21T09:56:11.901Z,70.00
2023-04-21T09:58:43.584Z,70.00
2023-04-21T10:01:11.814Z,70.60
2023-04-21T10:03:39.755Z,70.80
2023-04-21T10:06:07.451Z,71.00
2023-04-21T10:08:35.302Z,70.20
2023-04-21T10:11:04.371Z,71.10
2023-04-21T10:13:31.477Z,71.50
2023-04-21T10:16:05.858Z,71.50
2023-04-21T10:18:35.822Z,71.80
2023-04-21T10:21:04.761Z,71.70
2023-04-21T10:23:36.279Z,72.20
2023-04-21T10:26:11.002Z,72.30
2023-04-21T10:28:42.133Z,72.60
2023-04-21T10:31:33.342Z,72.90
2023-04-21T10:34:22.820Z,73.10
2023-04-21T10:37:09.989Z,73.50
2023-04-21T10:39:37.720Z,75.00
2023-04-21T10:42:22.307Z,75.50
2023-04-21T10:44:54.203Z,76.00
2023-04-21T10:47:27.371Z,76.90
2023-04-21T10:49:56.846Z,77.50
2023-04-21T10:52:31.213Z,78.00
2023-04-21T10:55:16.111Z,78.40
2023-04-21T10:57:45.498Z,79.30
2023-04-21T11:00:17.001Z,79.00
2023-04-21T11:02:45.253Z,79.10
2023-04-21T11:05:12.939Z,78.80
2023-04-21T11:07:39.970Z,79.00
2023-04-21T11:10:08.731Z,79.20
2023-04-21T11:12:38.221Z,79.30
2023-04-21T11:15:08.451Z,79.30
2023-04-21T11:17:36.084Z,79.60
2023-04-21T11:20:04.040Z,79.40
2023-04-21T11:22:30.835Z,77.80
2023-04-21T11:25:01.293Z,78.40
2023-04-21T11:27:29.402Z,78.70
2023-04-21T11:29:56.955Z,79.10
2023-04-21T11:32:25.191Z,79.10
2023-04-21T11:34:52.112Z,79.10
2023-04-21T11:37:24.908Z,79.10
2023-04-21T11:39:57.404Z,79.10
2023-04-21T11:42:24.331Z,78.80
2023-04-21T11:44:53.647Z,78.60
2023-04-21T11:47:22.723Z,78.60
2023-04-21T11:49:52.570Z,78.60
2023-04-21T11:52:23.966Z,78.00
2023-04-21T11:54:55.846Z,77.30
2023-04-21T11:57:23.766Z,76.80
2023-04-21T11:59:50.676Z,76.70
2023-04-21T12:02:23.081Z,76.80
2023-04-21T12:05:07.200Z,76.30
2023-04-21T12:07:34.817Z,76.40
2023-04-21T12:10:02.420Z,76.50
2023-04-21T12:12:30.055Z,74.50
2023-04-21T12:14:56.940Z,73.40
2023-04-21T12:17:23.718Z,71.40
2023-04-21T12:19:50.537Z,70.90
2023-04-21T12:22:18.990Z,70.50
2023-04-21T12:24:46.365Z,70.50
2023-04-21T12:27:13.694Z,68.30
2023-04-21T12:29:40.816Z,68.50
2023-04-21T12:32:08.762Z,69.60
2023-04-21T12:34:36.063Z,69.90
2023-04-21T12:37:03.519Z,69.70
2023-04-21T12:39:32.271Z,69.80
2023-04-21T12:41:59.574Z,68.90
2023-04-21T12:44:26.513Z,67.20
2023-04-21T12:46:53.461Z,65.60
2023-04-21T12:49:20.521Z,62.20
2023-04-21T12:51:48.794Z,57.60
2023-04-21T12:54:15.606Z,53.50
2023-04-21T12:56:44.120Z,50.90
2023-04-21T12:59:11.523Z,47.60
2023-04-21T13:01:40.053Z,45.20
2023-04-21T13:04:08.121Z,43.50
2023-04-21T13:06:35.336Z,42.10
2023-04-21T13:09:02.188Z,41.80
2023-04-21T13:11:28.986Z,40.50
2023-04-21T13:13:57.762Z,39.70
2023-04-21T13:16:24.660Z,38.60
2023-04-21T13:18:51.487Z,38.10
2023-04-21T13:21:18.243Z,37.00
2023-04-21T13:23:45.235Z,36.40
2023-04-21T13:26:12.284Z,35.50
2023-04-21T13:28:39.104Z,35.00
2023-04-21T13:31:07.451Z,34.60
2023-04-21T13:33:34.481Z,33.90
2023-04-21T13:36:02.122Z,33.60
2023-04-21T13:38:29.025Z,33.10
2023-04-21T13:40:55.952Z,32.80
2023-04-21T13:43:23.115Z,32.10
2023-04-21T13:45:50.506Z,31.90
2023-04-21T13:48:19.286Z,32.10
2023-04-21T13:50:46.477Z,32.20
2023-04-21T13:53:13.370Z,31.90
2023-04-21T13:55:40.238Z,31.40
2023-04-21T13:58:07.048Z,30.60
2023-04-21T14:00:34.038Z,30.00
2023-04-21T14:03:01.077Z,30.00
2023-04-21T14:05:29.920Z,29.80
2023-04-21T14:07:56.909Z,29.70
2023-04-21T14:10:24.191Z,29.70
2023-04-21T14:12:50.981Z,29.60
2023-04-21T14:15:18.019Z,29.30
2023-04-21T14:17:44.882Z,29.10
2023-04-21T14:20:12.046Z,28.90
2023-04-21T14:22:40.182Z,28.80
2023-04-21T14:25:07.471Z,28.90
2023-04-21T14:27:34.472Z,28.60
2023-04-21T14:30:01.472Z,28.40
2023-04-21T14:32:28.506Z,28.50
2023-04-21T14:34:55.444Z,28.50
2023-04-21T14:37:22.560Z,28.30
2023-04-21T14:39:50.803Z,28.30
2023-04-21T14:42:17.661Z,28.00
2023-04-21T14:44:44.630Z,27.70
2023-04-21T14:47:11.739Z,27.70
2023-04-21T14:49:38.960Z,27.50
2023-04-21T14:52:05.904Z,27.40
2023-04-21T14:54:32.802Z,27.80
2023-04-21T14:57:17.486Z,28.20
2023-04-21T14:59:46.302Z,29.60
2023-04-21T15:02:13.557Z,29.60
2023-04-21T15:04:40.872Z,29.10
2023-04-21T15:07:07.735Z,28.30
2023-04-21T15:09:34.833Z,28.20
2023-04-21T15:12:03.431Z,27.90
2023-04-21T15:14:30.343Z,27.50
2023-04-21T15:16:57.314Z,27.20
2023-04-21T15:19:25.686Z,27.10
2023-04-21T15:21:58.781Z,26.60
2023-04-21T15:24:25.680Z,26.40
2023-04-21T15:26:52.637Z,26.50
2023-04-21T15:29:20.774Z,26.60
2023-04-21T15:31:47.585Z,27.00
2023-04-21T15:34:14.364Z,26.30
2023-04-21T15:36:41.167Z,26.30
2023-04-21T15:39:08.014Z,27.10
2023-04-21T15:41:34.860Z,27.30
2023-04-21T15:44:01.666Z,26.90
2023-04-21T15:46:29.913Z,26.90
2023-04-21T15:48:57.121Z,26.80
2023-04-21T15:51:24.061Z,26.70
2023-04-21T15:53:51.025Z,26.40
2023-04-21T15:56:18.033Z,26.30
2023-04-21T15:58:45.058Z,27.10
2023-04-21T16:01:12.073Z,27.10
2023-04-21T16:03:40.498Z,27.10
2023-04-21T16:06:08.021Z,27.00
2023-04-21T16:08:34.849Z,26.70
2023-04-21T16:11:01.709Z,26.60
2023-04-21T16:13:29.001Z,26.40
2023-04-21T16:15:55.799Z,26.20
2023-04-21T16:18:22.743Z,26.40
2023-04-21T16:20:51.316Z,26.20
2023-04-21T16:23:18.838Z,26.50
2023-04-21T16:25:45.802Z,26.70
2023-04-21T16:28:12.749Z,26.70
2023-04-21T16:30:39.612Z,26.80
2023-04-21T16:33:06.425Z,27.60
2023-04-21T16:35:33.715Z,28.50
2023-04-21T16:38:02.298Z,29.50
2023-04-21T16:40:29.310Z,29.50
2023-04-21T16:42:56.181Z,29.20
2023-04-21T16:45:23.123Z,28.80
2023-04-21T16:47:50.083Z,28.60
2023-04-21T16:50:17.022Z,28.40
2023-04-21T16:58:13.580Z,28.70
2023-04-21T17:00:40.365Z,28.70
2023-04-21T17:03:07.847Z,28.40
2023-04-21T17:05:34.836Z,28.50
2023-04-21T17:08:01.696Z,28.70
2023-04-21T17:10:28.530Z,28.70
2023-04-21T17:12:55.308Z,28.90
2023-04-21T17:15:23.542Z,29.70
2023-04-21T17:17:50.466Z,30.80
2023-04-21T17:20:17.280Z,32.80
2023-04-21T17:22:44.089Z,33.90
2023-04-21T17:25:11.301Z,33.60
2023-04-21T17:27:38.624Z,33.10
2023-04-21T17:30:06.638Z,32.70
2023-04-21T17:32:34.925Z,32.40
2023-04-21T17:35:01.811Z,32.40
2023-04-21T17:37:28.728Z,32.40
2023-04-21T17:39:55.723Z,33.10
2023-04-21T17:42:22.491Z,34.50
2023-04-21T17:44:49.387Z,35.30
2023-04-21T17:47:16.185Z,36.30
2023-04-21T17:49:44.330Z,36.00
2023-04-21T17:52:11.147Z,36.60
2023-04-21T17:54:38.080Z,37.90
2023-04-21T17:57:05.119Z,39.70
2023-04-21T17:59:31.960Z,42.00
2023-04-21T18:01:58.943Z,43.40
2023-04-21T18:04:26.150Z,45.00
2023-04-21T18:06:54.383Z,46.70
2023-04-21T18:09:21.164Z,48.20
2023-04-21T18:11:47.929Z,49.40
2023-04-21T18:14:15.083Z,50.80
2023-04-21T18:16:41.840Z,51.60
2023-04-21T18:19:08.720Z,52.40
2023-04-21T18:21:35.552Z,53.20
2023-04-21T18:24:03.999Z,54.10
2023-04-21T18:26:30.760Z,54.50
2023-04-21T18:28:57.486Z,55.30
2023-04-21T18:31:24.401Z,56.20
2023-04-21T18:33:51.321Z,56.30
2023-04-21T18:36:18.131Z,57.40
2023-04-21T18:38:44.865Z,58.10
2023-04-21T18:41:13.084Z,58.80
2023-04-21T18:43:40.096Z,58.80
2023-04-21T18:46:06.867Z,58.70
2023-04-21T18:48:33.609Z,59.10
2023-04-21T18:51:00.393Z,59.40
2023-04-21T18:53:27.212Z,60.30
2023-04-21T18:55:54.054Z,60.10
2023-04-21T18:58:22.364Z,60.30
2023-04-21T19:00:49.207Z,60.40
2023-04-21T19:03:16.126Z,60.60
2023-04-21T19:05:43.096Z,61.00
2023-04-21T19:08:09.922Z,61.40
2023-04-21T19:10:36.913Z,61.60
2023-04-21T19:13:03.917Z,61.90
2023-04-21T19:15:32.373Z,62.10
2023-04-21T19:17:59.168Z,62.30
2023-04-21T19:20:26.239Z,62.90
2023-04-21T19:22:52.965Z,63.10
2023-04-21T19:25:19.883Z,63.40
2023-04-21T19:27:47.604Z,63.90
2023-04-21T19:30:14.555Z,66.20
2023-04-21T19:32:42.755Z,67.20
2023-04-21T19:35:10.197Z,68.20
2023-04-21T19:37:37.118Z,66.00
2023-04-21T19:40:04.712Z,64.80
2023-04-21T19:42:31.615Z,64.50
2023-04-21T19:44:58.400Z,64.60
2023-04-21T19:47:25.407Z,63.90
2023-04-21T19:49:53.557Z,63.30
2023-04-21T19:52:20.416Z,63.10
2023-04-21T19:54:47.165Z,63.20
2023-04-21T19:57:13.920Z,62.50
2023-04-21T19:59:40.812Z,62.20
2023-04-21T20:02:08.120Z,62.30
2023-04-21T20:04:35.193Z,62.80
2023-04-21T20:07:03.486Z,63.00
2023-04-21T20:09:30.242Z,63.20
2023-04-21T20:11:56.942Z,63.30
2023-04-21T20:14:23.667Z,63.40
2023-04-21T20:16:50.454Z,63.50
2023-04-21T20:19:20.041Z,63.90
2023-04-21T20:21:46.766Z,64.00
2023-04-21T20:24:14.880Z,64.30
2023-04-21T20:26:41.682Z,64.40
2023-04-21T20:29:08.662Z,64.90
2023-04-21T20:31:35.511Z,65.00
2023-04-21T20:34:02.298Z,65.30
2023-04-21T20:36:29.128Z,65.50
2023-04-21T20:38:56.399Z,65.70
2023-04-21T20:41:24.530Z,65.60
2023-04-21T20:43:51.303Z,65.70
2023-04-21T20:46:18.314Z,66.00
2023-04-21T20:48:45.132Z,66.20
2023-04-21T20:51:11.898Z,66.30
2023-04-21T20:53:38.652Z,66.30
2023-04-21T20:56:05.619Z,66.60
2023-04-21T20:58:33.750Z,66.60
2023-04-21T21:01:00.542Z,66.40
2023-04-21T21:03:27.656Z,66.40
2023-04-21T21:05:54.576Z,66.80
2023-04-21T21:08:21.422Z,67.00
2023-04-21T21:10:48.246Z,66.80
2023-04-21T21:13:15.001Z,68.00
2023-04-21T21:15:43.132Z,67.70
2023-04-21T21:18:09.934Z,67.90
2023-04-21T21:20:36.798Z,68.10
2023-04-21T21:23:03.596Z,68.30
2023-04-21T21:25:30.477Z,68.30
2023-04-21T21:27:57.299Z,68.40
2023-04-21T21:30:24.037Z,68.70
2023-04-21T21:32:52.265Z,69.00
2023-04-21T21:35:19.117Z,69.20
2023-04-21T21:37:45.889Z,69.40
2023-04-21T21:40:13.052Z,69.50
2023-04-21T21:42:40.118Z,69.90
2023-04-21T21:45:07.897Z,70.10
2023-04-21T21:47:36.481Z,70.30
2023-04-21T21:50:08.176Z,70.40
2023-04-21T21:52:34.924Z,70.70
2023-04-21T21:55:01.658Z,71.00
2023-04-21T21:57:28.504Z,71.30
2023-04-21T21:59:55.419Z,71.70
2023-04-21T22:02:22.225Z,71.80
2023-04-21T22:04:49.186Z,71.80
2023-04-21T22:07:17.493Z,72.00
2023-04-21T22:09:44.231Z,72.50
2023-04-21T22:12:11.082Z,73.10
2023-04-21T22:14:37.966Z,73.30
2023-04-21T22:17:04.805Z,74.70
2023-04-21T22:19:31.564Z,74.80
2023-04-21T22:21:58.337Z,75.80
2023-04-21T22:24:26.487Z,76.00
2023-04-21T22:26:53.290Z,75.90
2023-04-21T22:29:20.064Z,75.90
2023-04-21T22:31:47.474Z,75.90
2023-04-21T22:34:14.463Z,76.10
2023-04-21T22:36:41.191Z,76.30
2023-04-21T22:39:07.962Z,76.80
2023-04-21T22:41:36.167Z,76.60
2023-04-21T22:44:03.047Z,76.80
2023-04-21T22:46:29.923Z,76.80
2023-04-21T22:48:56.735Z,76.80
2023-04-21T22:51:23.482Z,76.80
2023-04-21T22:53:50.532Z,77.00
2023-04-21T22:56:17.515Z,76.90
2023-04-21T22:58:46.094Z,77.10
2023-04-21T23:01:13.244Z,77.30
2023-04-21T23:03:40.679Z,77.40
2023-04-21T23:06:07.985Z,77.40
2023-04-21T23:08:34.852Z,77.60
2023-04-21T23:11:02.455Z,78.00
2023-04-21T23:13:30.089Z,78.00
2023-04-21T23:15:58.726Z,78.20
2023-04-21T23:18:25.879Z,78.30
2023-04-21T23:20:52.993Z,78.20
2023-04-21T23:23:19.846Z,78.50
2023-04-21T23:25:46.727Z,78.60
2023-04-21T23:28:13.783Z,79.30
2023-04-21T23:30:40.739Z,79.10
2023-04-21T23:33:09.003Z,79.20
2023-04-21T23:35:35.950Z,79.40
2023-04-21T23:38:03.309Z,79.50
2023-04-21T23:40:30.237Z,79.40
2023-04-21T23:42:57.194Z,79.70
2023-04-21T23:45:24.432Z,80.10
2023-04-21T23:47:51.473Z,80.30
2023-04-21T23:50:20.033Z,80.70
2023-04-21T23:52:46.962Z,80.50
2023-04-21T23:55:14.096Z,80.80
2023-04-21T23:57:41.090Z,81.10
